sensor_id;sensor_type;location;lat;lon;timestamp;temperature;humidity
80176;DHT22;69501;42.124;24.722;2023-06-22T00:01:52;28.10;40.30
80176;DHT22;69501;42.124;24.722;2023-06-22T00:04:18;28.10;40.20
80176;DHT22;69501;42.124;24.722;2023-06-22T00:06:44;28.10;40.20
80176;DHT22;69501;42.124;24.722;2023-06-22T00:09:09;28.10;40.50
80176;DHT22;69501;42.124;24.722;2023-06-22T00:11:36;28.00;40.60
80176;DHT22;69501;42.124;24.722;2023-06-22T00:14:03;28.00;40.60
80176;DHT22;69501;42.124;24.722;2023-06-22T00:16:29;28.10;40.90
80176;DHT22;69501;42.124;24.722;2023-06-22T00:18:55;28.10;40.80
80176;DHT22;69501;42.124;24.722;2023-06-22T00:21:20;28.10;40.80
80176;DHT22;69501;42.124;24.722;2023-06-22T00:23:46;28.10;40.90
80176;DHT22;69501;42.124;24.722;2023-06-22T00:26:13;28.10;41.10
80176;DHT22;69501;42.124;24.722;2023-06-22T00:28:39;28.10;41.30
80176;DHT22;69501;42.124;24.722;2023-06-22T00:31:04;28.10;41.20
80176;DHT22;69501;42.124;24.722;2023-06-22T00:33:30;28.10;41.30
80176;DHT22;69501;42.124;24.722;2023-06-22T00:35:57;28.10;41.30
80176;DHT22;69501;42.124;24.722;2023-06-22T00:38:22;28.10;41.40
80176;DHT22;69501;42.124;24.722;2023-06-22T00:40:48;28.10;41.40
80176;DHT22;69501;42.124;24.722;2023-06-22T00:43:14;28.10;41.30
80176;DHT22;69501;42.124;24.722;2023-06-22T00:45:40;28.00;41.40
80176;DHT22;69501;42.124;24.722;2023-06-22T00:48:06;28.00;41.20
80176;DHT22;69501;42.124;24.722;2023-06-22T00:50:33;27.90;41.30
80176;DHT22;69501;42.124;24.722;2023-06-22T00:53:05;27.90;41.40
80176;DHT22;69501;42.124;24.722;2023-06-22T00:55:42;27.90;41.50
80176;DHT22;69501;42.124;24.722;2023-06-22T00:58:17;27.90;41.50
80176;DHT22;69501;42.124;24.722;2023-06-22T01:00:42;27.90;41.50
80176;DHT22;69501;42.124;24.722;2023-06-22T01:03:08;27.90;41.50
80176;DHT22;69501;42.124;24.722;2023-06-22T01:05:35;27.90;41.50
80176;DHT22;69501;42.124;24.722;2023-06-22T01:10:47;27.90;41.50
80176;DHT22;69501;42.124;24.722;2023-06-22T01:16:14;27.80;41.50
80176;DHT22;69501;42.124;24.722;2023-06-22T01:18:43;27.80;41.70
80176;DHT22;69501;42.124;24.722;2023-06-22T01:21:13;27.80;41.80
80176;DHT22;69501;42.124;24.722;2023-06-22T01:23:59;27.70;41.80
80176;DHT22;69501;42.124;24.722;2023-06-22T01:29:21;27.80;41.90
80176;DHT22;69501;42.124;24.722;2023-06-22T01:31:48;27.80;42.00
80176;DHT22;69501;42.124;24.722;2023-06-22T01:34:15;27.80;42.00
80176;DHT22;69501;42.124;24.722;2023-06-22T01:36:42;27.80;42.00
80176;DHT22;69501;42.124;24.722;2023-06-22T01:39:09;27.80;42.10
80176;DHT22;69501;42.124;24.722;2023-06-22T01:41:37;27.80;42.30
80176;DHT22;69501;42.124;24.722;2023-06-22T01:44:05;27.70;42.40
80176;DHT22;69501;42.124;24.722;2023-06-22T01:46:33;27.80;42.50
80176;DHT22;69501;42.124;24.722;2023-06-22T01:48:59;27.80;42.60
80176;DHT22;69501;42.124;24.722;2023-06-22T01:51:25;27.70;42.60
80176;DHT22;69501;42.124;24.722;2023-06-22T01:53:51;27.80;42.80
80176;DHT22;69501;42.124;24.722;2023-06-22T01:56:17;27.80;42.70
80176;DHT22;69501;42.124;24.722;2023-06-22T01:58:55;27.70;42.80
80176;DHT22;69501;42.124;24.722;2023-06-22T02:01:26;27.70;42.80
80176;DHT22;69501;42.124;24.722;2023-06-22T02:04:27;27.60;43.20
80176;DHT22;69501;42.124;24.722;2023-06-22T02:06:56;27.70;43.40
80176;DHT22;69501;42.124;24.722;2023-06-22T02:09:26;27.60;43.40
80176;DHT22;69501;42.124;24.722;2023-06-22T02:11:54;27.60;43.50
80176;DHT22;69501;42.124;24.722;2023-06-22T02:14:23;27.60;43.50
80176;DHT22;69501;42.124;24.722;2023-06-22T02:16:50;27.60;43.60
80176;DHT22;69501;42.124;24.722;2023-06-22T02:19:16;27.60;43.60
80176;DHT22;69501;42.124;24.722;2023-06-22T02:21:44;27.60;43.50
80176;DHT22;69501;42.124;24.722;2023-06-22T02:24:10;27.60;43.50
80176;DHT22;69501;42.124;24.722;2023-06-22T02:26:36;27.60;43.50
80176;DHT22;69501;42.124;24.722;2023-06-22T02:29:03;27.60;43.50
80176;DHT22;69501;42.124;24.722;2023-06-22T02:31:29;27.60;43.50
80176;DHT22;69501;42.124;24.722;2023-06-22T02:33:59;27.60;43.50
80176;DHT22;69501;42.124;24.722;2023-06-22T02:36:25;27.60;43.50
80176;DHT22;69501;42.124;24.722;2023-06-22T02:38:52;27.60;43.50
80176;DHT22;69501;42.124;24.722;2023-06-22T02:41:18;27.60;43.50
80176;DHT22;69501;42.124;24.722;2023-06-22T02:43:47;27.50;43.30
80176;DHT22;69501;42.124;24.722;2023-06-22T02:46:13;27.50;43.50
80176;DHT22;69501;42.124;24.722;2023-06-22T02:48:40;27.50;43.70
80176;DHT22;69501;42.124;24.722;2023-06-22T02:51:06;27.50;44.00
80176;DHT22;69501;42.124;24.722;2023-06-22T02:53:32;27.50;44.00
80176;DHT22;69501;42.124;24.722;2023-06-22T02:55:58;27.50;43.90
80176;DHT22;69501;42.124;24.722;2023-06-22T02:58:26;27.50;44.00
80176;DHT22;69501;42.124;24.722;2023-06-22T03:00:52;27.50;44.30
80176;DHT22;69501;42.124;24.722;2023-06-22T03:03:19;27.40;44.30
80176;DHT22;69501;42.124;24.722;2023-06-22T03:05:45;27.50;44.40
80176;DHT22;69501;42.124;24.722;2023-06-22T03:08:10;27.50;44.20
80176;DHT22;69501;42.124;24.722;2023-06-22T03:10:36;27.50;44.00
80176;DHT22;69501;42.124;24.722;2023-06-22T03:13:02;27.50;43.90
80176;DHT22;69501;42.124;24.722;2023-06-22T03:15:27;27.50;43.50
80176;DHT22;69501;42.124;24.722;2023-06-22T03:17:54;27.50;43.40
80176;DHT22;69501;42.124;24.722;2023-06-22T03:20:20;27.40;43.10
80176;DHT22;69501;42.124;24.722;2023-06-22T03:22:46;27.30;43.20
80176;DHT22;69501;42.124;24.722;2023-06-22T03:25:14;27.20;43.10
80176;DHT22;69501;42.124;24.722;2023-06-22T03:27:40;27.20;43.00
80176;DHT22;69501;42.124;24.722;2023-06-22T03:30:08;27.10;42.90
80176;DHT22;69501;42.124;24.722;2023-06-22T03:32:33;27.00;43.00
80176;DHT22;69501;42.124;24.722;2023-06-22T03:34:59;26.90;42.90
80176;DHT22;69501;42.124;24.722;2023-06-22T03:37:26;26.90;43.00
80176;DHT22;69501;42.124;24.722;2023-06-22T03:39:52;26.90;43.00
80176;DHT22;69501;42.124;24.722;2023-06-22T03:42:17;26.90;43.00
80176;DHT22;69501;42.124;24.722;2023-06-22T03:44:43;26.80;43.10
80176;DHT22;69501;42.124;24.722;2023-06-22T03:47:09;26.80;43.40
80176;DHT22;69501;42.124;24.722;2023-06-22T03:49:35;26.80;43.50
80176;DHT22;69501;42.124;24.722;2023-06-22T03:52:02;26.80;43.50
80176;DHT22;69501;42.124;24.722;2023-06-22T03:54:29;26.80;43.60
80176;DHT22;69501;42.124;24.722;2023-06-22T03:56:56;26.80;43.60
80176;DHT22;69501;42.124;24.722;2023-06-22T03:59:22;26.70;43.80
80176;DHT22;69501;42.124;24.722;2023-06-22T04:01:48;26.70;44.20
80176;DHT22;69501;42.124;24.722;2023-06-22T04:04:14;26.70;44.60
80176;DHT22;69501;42.124;24.722;2023-06-22T04:06:39;26.80;44.60
80176;DHT22;69501;42.124;24.722;2023-06-22T04:09:06;26.90;44.80
80176;DHT22;69501;42.124;24.722;2023-06-22T04:11:32;26.90;45.70
80176;DHT22;69501;42.124;24.722;2023-06-22T04:13:58;26.90;45.90
80176;DHT22;69501;42.124;24.722;2023-06-22T04:16:23;27.00;46.90
80176;DHT22;69501;42.124;24.722;2023-06-22T04:18:49;27.00;50.10
80176;DHT22;69501;42.124;24.722;2023-06-22T04:21:14;27.10;49.70
80176;DHT22;69501;42.124;24.722;2023-06-22T04:23:40;27.20;49.10
80176;DHT22;69501;42.124;24.722;2023-06-22T04:26:06;27.30;49.20
80176;DHT22;69501;42.124;24.722;2023-06-22T04:28:31;27.40;47.00
80176;DHT22;69501;42.124;24.722;2023-06-22T04:31:01;27.40;46.90
80176;DHT22;69501;42.124;24.722;2023-06-22T04:33:28;27.40;45.50
80176;DHT22;69501;42.124;24.722;2023-06-22T04:35:55;27.30;45.30
80176;DHT22;69501;42.124;24.722;2023-06-22T04:38:22;27.30;44.90
80176;DHT22;69501;42.124;24.722;2023-06-22T04:40:51;27.20;44.30
80176;DHT22;69501;42.124;24.722;2023-06-22T04:43:16;27.30;44.30
80176;DHT22;69501;42.124;24.722;2023-06-22T04:45:42;27.30;44.20
80176;DHT22;69501;42.124;24.722;2023-06-22T04:48:08;27.40;43.70
80176;DHT22;69501;42.124;24.722;2023-06-22T04:50:36;27.30;43.60
80176;DHT22;69501;42.124;24.722;2023-06-22T04:53:04;27.30;44.10
80176;DHT22;69501;42.124;24.722;2023-06-22T04:55:34;27.30;44.00
80176;DHT22;69501;42.124;24.722;2023-06-22T04:58:02;27.30;43.80
80176;DHT22;69501;42.124;24.722;2023-06-22T05:00:30;27.30;43.80
80176;DHT22;69501;42.124;24.722;2023-06-22T05:02:56;27.40;43.80
80176;DHT22;69501;42.124;24.722;2023-06-22T05:05:24;27.40;43.40
80176;DHT22;69501;42.124;24.722;2023-06-22T05:07:51;27.50;43.40
80176;DHT22;69501;42.124;24.722;2023-06-22T05:10:19;27.50;43.40
80176;DHT22;69501;42.124;24.722;2023-06-22T05:12:46;27.50;43.40
80176;DHT22;69501;42.124;24.722;2023-06-22T05:15:12;27.60;43.30
80176;DHT22;69501;42.124;24.722;2023-06-22T05:17:38;27.60;43.00
80176;DHT22;69501;42.124;24.722;2023-06-22T05:20:09;27.60;43.00
80176;DHT22;69501;42.124;24.722;2023-06-22T05:22:35;27.70;42.90
80176;DHT22;69501;42.124;24.722;2023-06-22T05:25:01;27.70;42.80
80176;DHT22;69501;42.124;24.722;2023-06-22T05:27:27;27.70;42.70
80176;DHT22;69501;42.124;24.722;2023-06-22T05:29:52;27.80;42.70
80176;DHT22;69501;42.124;24.722;2023-06-22T05:32:18;27.80;42.80
80176;DHT22;69501;42.124;24.722;2023-06-22T05:34:44;27.80;43.00
80176;DHT22;69501;42.124;24.722;2023-06-22T05:37:10;27.90;42.90
80176;DHT22;69501;42.124;24.722;2023-06-22T05:39:36;28.00;42.90
80176;DHT22;69501;42.124;24.722;2023-06-22T05:42:05;28.00;43.10
80176;DHT22;69501;42.124;24.722;2023-06-22T05:44:31;28.10;44.20
80176;DHT22;69501;42.124;24.722;2023-06-22T05:46:56;28.20;44.40
80176;DHT22;69501;42.124;24.722;2023-06-22T05:49:22;28.30;43.30
80176;DHT22;69501;42.124;24.722;2023-06-22T05:51:49;28.40;42.60
80176;DHT22;69501;42.124;24.722;2023-06-22T05:54:15;28.40;43.10
80176;DHT22;69501;42.124;24.722;2023-06-22T05:56:43;28.50;42.20
80176;DHT22;69501;42.124;24.722;2023-06-22T05:59:08;28.50;41.60
80176;DHT22;69501;42.124;24.722;2023-06-22T06:01:34;28.60;41.00
80176;DHT22;69501;42.124;24.722;2023-06-22T06:04:04;28.60;41.20
80176;DHT22;69501;42.124;24.722;2023-06-22T06:06:30;28.70;40.80
80176;DHT22;69501;42.124;24.722;2023-06-22T06:08:55;28.80;39.80
80176;DHT22;69501;42.124;24.722;2023-06-22T06:11:22;28.80;39.00
80176;DHT22;69501;42.124;24.722;2023-06-22T06:13:47;28.80;38.50
80176;DHT22;69501;42.124;24.722;2023-06-22T06:16:13;28.70;39.00
80176;DHT22;69501;42.124;24.722;2023-06-22T06:18:39;28.70;39.70
80176;DHT22;69501;42.124;24.722;2023-06-22T06:21:04;28.70;38.00
80176;DHT22;69501;42.124;24.722;2023-06-22T06:23:30;28.60;38.50
80176;DHT22;69501;42.124;24.722;2023-06-22T06:25:56;28.70;39.30
80176;DHT22;69501;42.124;24.722;2023-06-22T06:28:24;28.80;39.20
80176;DHT22;69501;42.124;24.722;2023-06-22T06:30:50;28.90;38.50
80176;DHT22;69501;42.124;24.722;2023-06-22T06:33:17;29.00;38.30
80176;DHT22;69501;42.124;24.722;2023-06-22T06:35:43;29.00;38.20
80176;DHT22;69501;42.124;24.722;2023-06-22T06:38:08;29.10;37.60
80176;DHT22;69501;42.124;24.722;2023-06-22T06:40:34;29.20;37.60
80176;DHT22;69501;42.124;24.722;2023-06-22T06:42:59;29.20;37.20
80176;DHT22;69501;42.124;24.722;2023-06-22T06:45:26;29.20;37.10
80176;DHT22;69501;42.124;24.722;2023-06-22T06:47:54;29.30;37.00
80176;DHT22;69501;42.124;24.722;2023-06-22T06:50:19;29.30;36.70
80176;DHT22;69501;42.124;24.722;2023-06-22T06:52:45;29.40;36.70
80176;DHT22;69501;42.124;24.722;2023-06-22T06:55:11;29.50;36.30
80176;DHT22;69501;42.124;24.722;2023-06-22T06:57:40;29.50;36.10
80176;DHT22;69501;42.124;24.722;2023-06-22T07:00:09;29.60;36.30
80176;DHT22;69501;42.124;24.722;2023-06-22T07:02:38;29.70;36.00
80176;DHT22;69501;42.124;24.722;2023-06-22T07:05:05;29.80;35.90
80176;DHT22;69501;42.124;24.722;2023-06-22T07:07:31;29.80;35.50
80176;DHT22;69501;42.124;24.722;2023-06-22T07:09:57;30.00;35.40
80176;DHT22;69501;42.124;24.722;2023-06-22T07:12:23;30.00;35.10
80176;DHT22;69501;42.124;24.722;2023-06-22T07:14:48;30.10;34.90
80176;DHT22;69501;42.124;24.722;2023-06-22T07:17:15;30.10;34.70
80176;DHT22;69501;42.124;24.722;2023-06-22T07:19:41;30.10;35.00
80176;DHT22;69501;42.124;24.722;2023-06-22T07:22:16;30.20;35.00
80176;DHT22;69501;42.124;24.722;2023-06-22T07:24:43;30.10;34.80
80176;DHT22;69501;42.124;24.722;2023-06-22T07:27:09;30.10;35.00
80176;DHT22;69501;42.124;24.722;2023-06-22T07:29:37;30.10;34.90
80176;DHT22;69501;42.124;24.722;2023-06-22T07:32:06;30.10;34.80
80176;DHT22;69501;42.124;24.722;2023-06-22T07:34:32;30.10;34.70
80176;DHT22;69501;42.124;24.722;2023-06-22T07:36:59;30.10;34.50
80176;DHT22;69501;42.124;24.722;2023-06-22T07:39:25;30.20;34.10
80176;DHT22;69501;42.124;24.722;2023-06-22T07:41:52;30.30;34.00
80176;DHT22;69501;42.124;24.722;2023-06-22T07:44:18;30.30;33.50
80176;DHT22;69501;42.124;24.722;2023-06-22T07:46:43;30.40;33.60
80176;DHT22;69501;42.124;24.722;2023-06-22T07:49:09;30.50;33.00
80176;DHT22;69501;42.124;24.722;2023-06-22T07:51:35;30.50;32.80
80176;DHT22;69501;42.124;24.722;2023-06-22T07:54:00;30.60;32.50
80176;DHT22;69501;42.124;24.722;2023-06-22T07:56:26;30.70;32.00
80176;DHT22;69501;42.124;24.722;2023-06-22T07:58:52;30.80;30.40
80176;DHT22;69501;42.124;24.722;2023-06-22T08:01:18;30.90;30.20
80176;DHT22;69501;42.124;24.722;2023-06-22T08:03:47;30.90;29.90
80176;DHT22;69501;42.124;24.722;2023-06-22T08:06:13;31.00;30.00
80176;DHT22;69501;42.124;24.722;2023-06-22T08:08:39;31.00;30.00
80176;DHT22;69501;42.124;24.722;2023-06-22T08:11:05;31.10;30.20
80176;DHT22;69501;42.124;24.722;2023-06-22T08:13:31;31.20;29.80
80176;DHT22;69501;42.124;24.722;2023-06-22T08:15:57;31.20;29.90
80176;DHT22;69501;42.124;24.722;2023-06-22T08:18:22;31.30;29.90
80176;DHT22;69501;42.124;24.722;2023-06-22T08:20:48;31.30;29.70
80176;DHT22;69501;42.124;24.722;2023-06-22T08:23:14;31.40;30.00
80176;DHT22;69501;42.124;24.722;2023-06-22T08:25:40;31.50;30.00
80176;DHT22;69501;42.124;24.722;2023-06-22T08:28:06;31.50;29.70
80176;DHT22;69501;42.124;24.722;2023-06-22T08:30:32;31.50;29.60
80176;DHT22;69501;42.124;24.722;2023-06-22T08:32:58;31.60;29.30
80176;DHT22;69501;42.124;24.722;2023-06-22T08:35:24;31.60;29.40
80176;DHT22;69501;42.124;24.722;2023-06-22T08:37:50;31.60;29.40
80176;DHT22;69501;42.124;24.722;2023-06-22T08:40:20;31.70;29.20
80176;DHT22;69501;42.124;24.722;2023-06-22T08:42:47;31.80;29.00
80176;DHT22;69501;42.124;24.722;2023-06-22T08:45:13;31.80;28.90
80176;DHT22;69501;42.124;24.722;2023-06-22T08:47:40;31.90;28.60
80176;DHT22;69501;42.124;24.722;2023-06-22T08:50:10;32.00;28.10
80176;DHT22;69501;42.124;24.722;2023-06-22T08:52:36;32.20;28.10
80176;DHT22;69501;42.124;24.722;2023-06-22T08:55:03;32.20;27.50
80176;DHT22;69501;42.124;24.722;2023-06-22T08:57:29;32.30;27.30
80176;DHT22;69501;42.124;24.722;2023-06-22T08:59:56;32.30;26.90
80176;DHT22;69501;42.124;24.722;2023-06-22T09:02:26;32.30;26.90
80176;DHT22;69501;42.124;24.722;2023-06-22T09:04:56;32.40;27.10
80176;DHT22;69501;42.124;24.722;2023-06-22T09:07:23;32.50;27.10
80176;DHT22;69501;42.124;24.722;2023-06-22T09:09:50;32.50;26.60
80176;DHT22;69501;42.124;24.722;2023-06-22T09:12:17;32.60;26.60
80176;DHT22;69501;42.124;24.722;2023-06-22T09:14:42;32.70;26.30
80176;DHT22;69501;42.124;24.722;2023-06-22T09:17:08;32.70;26.20
80176;DHT22;69501;42.124;24.722;2023-06-22T09:19:34;32.80;26.40
80176;DHT22;69501;42.124;24.722;2023-06-22T09:22:00;32.80;26.60
80176;DHT22;69501;42.124;24.722;2023-06-22T09:24:26;32.90;26.20
80176;DHT22;69501;42.124;24.722;2023-06-22T09:26:51;32.90;26.20
80176;DHT22;69501;42.124;24.722;2023-06-22T09:29:17;33.00;26.10
80176;DHT22;69501;42.124;24.722;2023-06-22T09:31:43;33.10;26.10
80176;DHT22;69501;42.124;24.722;2023-06-22T09:34:09;33.20;25.70
80176;DHT22;69501;42.124;24.722;2023-06-22T09:36:35;33.30;25.20
80176;DHT22;69501;42.124;24.722;2023-06-22T09:39:01;33.30;25.70
80176;DHT22;69501;42.124;24.722;2023-06-22T09:41:31;33.30;24.50
80176;DHT22;69501;42.124;24.722;2023-06-22T09:43:57;33.30;24.30
80176;DHT22;69501;42.124;24.722;2023-06-22T09:46:22;33.50;24.30
80176;DHT22;69501;42.124;24.722;2023-06-22T09:48:50;33.60;24.20
80176;DHT22;69501;42.124;24.722;2023-06-22T09:51:16;33.70;24.10
80176;DHT22;69501;42.124;24.722;2023-06-22T09:53:42;33.80;24.00
80176;DHT22;69501;42.124;24.722;2023-06-22T09:56:09;34.00;24.00
80176;DHT22;69501;42.124;24.722;2023-06-22T09:58:43;34.10;23.40
80176;DHT22;69501;42.124;24.722;2023-06-22T10:01:09;34.10;23.20
80176;DHT22;69501;42.124;24.722;2023-06-22T10:03:36;34.20;24.00
80176;DHT22;69501;42.124;24.722;2023-06-22T10:06:02;34.20;22.70
80176;DHT22;69501;42.124;24.722;2023-06-22T10:08:27;34.30;22.80
80176;DHT22;69501;42.124;24.722;2023-06-22T10:10:53;34.30;22.90
80176;DHT22;69501;42.124;24.722;2023-06-22T10:13:19;34.40;23.40
80176;DHT22;69501;42.124;24.722;2023-06-22T10:15:45;34.50;23.00
80176;DHT22;69501;42.124;24.722;2023-06-22T10:18:17;34.40;23.00
80176;DHT22;69501;42.124;24.722;2023-06-22T10:20:43;34.50;23.00
80176;DHT22;69501;42.124;24.722;2023-06-22T10:23:09;34.60;22.90
80176;DHT22;69501;42.124;24.722;2023-06-22T10:25:35;34.60;22.70
80176;DHT22;69501;42.124;24.722;2023-06-22T10:28:00;34.70;22.70
80176;DHT22;69501;42.124;24.722;2023-06-22T10:30:26;34.80;22.60
80176;DHT22;69501;42.124;24.722;2023-06-22T10:32:51;34.90;22.40
80176;DHT22;69501;42.124;24.722;2023-06-22T10:35:17;35.00;22.40
80176;DHT22;69501;42.124;24.722;2023-06-22T10:37:44;35.00;22.30
80176;DHT22;69501;42.124;24.722;2023-06-22T10:40:13;35.20;22.40
80176;DHT22;69501;42.124;24.722;2023-06-22T10:42:40;35.40;22.30
80176;DHT22;69501;42.124;24.722;2023-06-22T10:45:07;35.60;22.10
80176;DHT22;69501;42.124;24.722;2023-06-22T10:47:33;35.80;21.90
80176;DHT22;69501;42.124;24.722;2023-06-22T10:49:59;35.90;21.30
80176;DHT22;69501;42.124;24.722;2023-06-22T10:52:25;35.90;21.30
80176;DHT22;69501;42.124;24.722;2023-06-22T10:54:50;36.00;21.30
80176;DHT22;69501;42.124;24.722;2023-06-22T10:57:18;36.10;21.20
80176;DHT22;69501;42.124;24.722;2023-06-22T10:59:43;36.20;21.20
80176;DHT22;69501;42.124;24.722;2023-06-22T11:02:09;36.40;21.00
80176;DHT22;69501;42.124;24.722;2023-06-22T11:04:34;36.50;20.90
80176;DHT22;69501;42.124;24.722;2023-06-22T11:07:00;36.60;20.60
80176;DHT22;69501;42.124;24.722;2023-06-22T11:09:26;36.70;20.30
80176;DHT22;69501;42.124;24.722;2023-06-22T11:11:52;36.70;20.50
80176;DHT22;69501;42.124;24.722;2023-06-22T11:14:21;36.70;20.40
80176;DHT22;69501;42.124;24.722;2023-06-22T11:16:47;36.70;20.60
80176;DHT22;69501;42.124;24.722;2023-06-22T11:19:13;36.50;20.60
80176;DHT22;69501;42.124;24.722;2023-06-22T11:21:39;36.30;20.80
80176;DHT22;69501;42.124;24.722;2023-06-22T11:24:05;36.10;21.00
80176;DHT22;69501;42.124;24.722;2023-06-22T11:26:31;36.00;21.30
80176;DHT22;69501;42.124;24.722;2023-06-22T11:28:58;35.90;21.40
80176;DHT22;69501;42.124;24.722;2023-06-22T11:31:24;35.80;21.20
80176;DHT22;69501;42.124;24.722;2023-06-22T11:33:49;35.80;21.40
80176;DHT22;69501;42.124;24.722;2023-06-22T11:36:15;35.70;21.50
80176;DHT22;69501;42.124;24.722;2023-06-22T11:38:44;35.60;21.60
80176;DHT22;69501;42.124;24.722;2023-06-22T11:41:10;35.70;21.40
80176;DHT22;69501;42.124;24.722;2023-06-22T11:43:36;35.70;21.40
80176;DHT22;69501;42.124;24.722;2023-06-22T11:46:03;35.70;21.50
80176;DHT22;69501;42.124;24.722;2023-06-22T11:48:29;35.70;21.60
80176;DHT22;69501;42.124;24.722;2023-06-22T11:50:55;35.60;21.20
80176;DHT22;69501;42.124;24.722;2023-06-22T11:53:21;35.60;21.40
80176;DHT22;69501;42.124;24.722;2023-06-22T11:55:47;35.40;21.50
80176;DHT22;69501;42.124;24.722;2023-06-22T11:58:13;35.30;21.80
80176;DHT22;69501;42.124;24.722;2023-06-22T12:00:39;35.30;22.20
80176;DHT22;69501;42.124;24.722;2023-06-22T12:03:04;35.30;22.30
80176;DHT22;69501;42.124;24.722;2023-06-22T12:05:30;35.50;22.10
80176;DHT22;69501;42.124;24.722;2023-06-22T12:07:56;35.50;21.90
80176;DHT22;69501;42.124;24.722;2023-06-22T12:10:22;35.50;21.90
80176;DHT22;69501;42.124;24.722;2023-06-22T12:12:48;35.50;22.00
80176;DHT22;69501;42.124;24.722;2023-06-22T12:15:14;35.70;22.00
80176;DHT22;69501;42.124;24.722;2023-06-22T12:17:40;35.70;21.70
80176;DHT22;69501;42.124;24.722;2023-06-22T12:20:07;35.90;21.80
80176;DHT22;69501;42.124;24.722;2023-06-22T12:22:33;36.20;21.60
80176;DHT22;69501;42.124;24.722;2023-06-22T12:25:00;36.30;21.60
80176;DHT22;69501;42.124;24.722;2023-06-22T12:27:26;36.50;21.60
80176;DHT22;69501;42.124;24.722;2023-06-22T12:29:51;36.60;21.50
80176;DHT22;69501;42.124;24.722;2023-06-22T12:32:17;36.60;21.20
80176;DHT22;69501;42.124;24.722;2023-06-22T12:34:43;36.40;21.10
80176;DHT22;69501;42.124;24.722;2023-06-22T12:37:10;36.20;21.30
80176;DHT22;69501;42.124;24.722;2023-06-22T12:39:36;35.90;21.70
80176;DHT22;69501;42.124;24.722;2023-06-22T12:42:01;35.60;22.30
80176;DHT22;69501;42.124;24.722;2023-06-22T12:44:27;35.50;22.50
80176;DHT22;69501;42.124;24.722;2023-06-22T12:46:53;35.40;22.50
80176;DHT22;69501;42.124;24.722;2023-06-22T12:49:18;35.30;22.80
80176;DHT22;69501;42.124;24.722;2023-06-22T12:51:44;35.40;23.00
80176;DHT22;69501;42.124;24.722;2023-06-22T12:54:20;35.70;22.90
80176;DHT22;69501;42.124;24.722;2023-06-22T12:56:46;36.00;22.50
80176;DHT22;69501;42.124;24.722;2023-06-22T12:59:12;36.10;21.90
80176;DHT22;69501;42.124;24.722;2023-06-22T13:01:38;35.90;22.00
80176;DHT22;69501;42.124;24.722;2023-06-22T13:04:04;35.80;23.30
80176;DHT22;69501;42.124;24.722;2023-06-22T13:06:30;35.60;22.70
80176;DHT22;69501;42.124;24.722;2023-06-22T13:08:56;35.40;23.10
80176;DHT22;69501;42.124;24.722;2023-06-22T13:11:21;35.30;23.50
80176;DHT22;69501;42.124;24.722;2023-06-22T13:13:47;35.10;23.60
80176;DHT22;69501;42.124;24.722;2023-06-22T13:16:13;35.00;23.70
80176;DHT22;69501;42.124;24.722;2023-06-22T13:18:38;34.80;23.90
80176;DHT22;69501;42.124;24.722;2023-06-22T13:21:04;34.70;24.30
80176;DHT22;69501;42.124;24.722;2023-06-22T13:23:30;34.60;25.50
80176;DHT22;69501;42.124;24.722;2023-06-22T13:25:57;34.50;24.40
80176;DHT22;69501;42.124;24.722;2023-06-22T13:28:22;34.50;24.40
80176;DHT22;69501;42.124;24.722;2023-06-22T13:30:48;34.40;24.40
80176;DHT22;69501;42.124;24.722;2023-06-22T13:33:14;34.30;24.50
80176;DHT22;69501;42.124;24.722;2023-06-22T13:35:40;34.20;24.70
80176;DHT22;69501;42.124;24.722;2023-06-22T13:38:11;34.10;25.00
80176;DHT22;69501;42.124;24.722;2023-06-22T13:40:37;34.00;25.50
80176;DHT22;69501;42.124;24.722;2023-06-22T13:43:06;34.00;25.20
80176;DHT22;69501;42.124;24.722;2023-06-22T13:45:31;33.90;25.40
80176;DHT22;69501;42.124;24.722;2023-06-22T13:47:57;33.80;25.60
80176;DHT22;69501;42.124;24.722;2023-06-22T13:50:23;33.60;25.90
80176;DHT22;69501;42.124;24.722;2023-06-22T13:52:49;33.50;26.40
80176;DHT22;69501;42.124;24.722;2023-06-22T13:55:14;33.40;27.40
80176;DHT22;69501;42.124;24.722;2023-06-22T13:57:40;33.30;28.60
80176;DHT22;69501;42.124;24.722;2023-06-22T14:00:07;33.20;29.30
80176;DHT22;69501;42.124;24.722;2023-06-22T14:02:38;33.10;30.00
80176;DHT22;69501;42.124;24.722;2023-06-22T14:05:04;33.00;31.00
80176;DHT22;69501;42.124;24.722;2023-06-22T14:07:29;33.00;32.20
80176;DHT22;69501;42.124;24.722;2023-06-22T14:09:55;32.90;32.60
80176;DHT22;69501;42.124;24.722;2023-06-22T14:12:20;32.80;32.80
80176;DHT22;69501;42.124;24.722;2023-06-22T14:14:46;32.70;32.10
80176;DHT22;69501;42.124;24.722;2023-06-22T14:17:12;32.70;30.70
80176;DHT22;69501;42.124;24.722;2023-06-22T14:19:37;32.60;29.90
80176;DHT22;69501;42.124;24.722;2023-06-22T14:22:03;32.50;31.00
80176;DHT22;69501;42.124;24.722;2023-06-22T14:24:29;32.50;30.00
80176;DHT22;69501;42.124;24.722;2023-06-22T14:26:55;32.40;30.00
80176;DHT22;69501;42.124;24.722;2023-06-22T14:29:22;32.40;29.70
80176;DHT22;69501;42.124;24.722;2023-06-22T14:31:48;32.40;29.00
80176;DHT22;69501;42.124;24.722;2023-06-22T14:34:15;32.40;29.80
80176;DHT22;69501;42.124;24.722;2023-06-22T14:36:41;32.30;29.90
80176;DHT22;69501;42.124;24.722;2023-06-22T14:39:08;32.30;30.00
80176;DHT22;69501;42.124;24.722;2023-06-22T14:41:33;32.20;30.80
80176;DHT22;69501;42.124;24.722;2023-06-22T14:43:59;32.20;30.80
80176;DHT22;69501;42.124;24.722;2023-06-22T14:46:25;32.10;30.40
80176;DHT22;69501;42.124;24.722;2023-06-22T14:48:51;31.90;31.20
80176;DHT22;69501;42.124;24.722;2023-06-22T14:51:16;31.80;32.60
80176;DHT22;69501;42.124;24.722;2023-06-22T14:53:44;31.60;33.30
80176;DHT22;69501;42.124;24.722;2023-06-22T14:56:10;31.30;34.50
80176;DHT22;69501;42.124;24.722;2023-06-22T14:58:35;31.10;35.80
80176;DHT22;69501;42.124;24.722;2023-06-22T15:01:02;30.90;36.80
80176;DHT22;69501;42.124;24.722;2023-06-22T15:03:28;30.80;37.50
80176;DHT22;69501;42.124;24.722;2023-06-22T15:05:56;30.70;37.80
80176;DHT22;69501;42.124;24.722;2023-06-22T15:08:22;30.70;38.00
80176;DHT22;69501;42.124;24.722;2023-06-22T15:10:47;30.80;38.80
80176;DHT22;69501;42.124;24.722;2023-06-22T15:13:13;30.90;39.70
80176;DHT22;69501;42.124;24.722;2023-06-22T15:15:39;31.00;38.70
80176;DHT22;69501;42.124;24.722;2023-06-22T15:18:04;31.10;44.10
80176;DHT22;69501;42.124;24.722;2023-06-22T15:20:30;30.90;45.20